Наримановка

Карта отелей и гостиниц, располагающихся рядом с аэропортом Наримановка :

Наримановка
Костанай
Костанайская область 53° 12' 26.3412" N, 63° 32' 57.3" E
Код аэродрома ИКАО
UAUU
Код аэродрома RU
УАУУ
Координаты
N53.20732° E063.54925°
Превышение над уровнем моря
181
Основная полоса
15R/33L
Курс магнитный
146/326
Длина основной ВПП
2550
Ширина основной ВПП
80
Покрытие основной ВПП
Нетвёрдое (грунт)
Освещение ВПП
Нет
Тип: 
Аэродром
Принадлежность: 
ГА
Статус: 
Действующий
Страна: 
Казахстан
Регион: 
Костанайская область
Город: 
Костанай
Дополнительная информация: 
Эксплуатант: АООТ «Аэропорт Костанай». C 1980 по 2000 годы являлся аэродромом совместного базирования — дислоцировались военные самолёты Ан-12 (отдельный транспортный авиационный полк). В 70-х сюда был перебазирован из Миргорода 45-й УАП Ворошиловоградского ВВАУШ на Ту-16, вошедший в состав Челябинского ВВАКУШ.
Погода: 

Авиационная погода в Костанае

Регион: 
Погода METAR: 
UAUU 241400Z 18006MPS CAVOK 12/M02 Q1012 R15/010060 NOSIG RMK QFE743/0991
Время наблюдения
2021-10-24T14:00:00Z
Температура C
12.0
Точка росы
-2.0
Направление ветра
180
Скорость ветра (узлы)
12
Метео видимость
6.21
Явления погоды
Условия полета
VFR
Аэропорт подробнее: 

Найти трансфер

С помощью этой формы Вы можете найти трансфер из аэропорта Наримановка в город, аэропорт или вокзал:

Карта места

Javascript is required to view this map.

Погода в аэропортах:

Авиационная погода в Москве - Остафьево

Погода METAR: 
UUMO 241700Z 32006MPS 9000 -SHSN BKN058CB 01/M01 Q1021 RESHSN R25/290050 NOSIG RMK QFE750/1001
Время наблюдения
2021-10-24T17:00:00Z
Температура C
1.0
Точка росы
-1.0
Направление ветра
320
Скорость ветра (узлы)
12
Метео видимость
5.59
Явления погоды
-SHSN
Условия полета
VFR
Аэропорт подробнее: 

Авиационная погода в Зонгулдаке

Регион: 
Погода METAR: 
LTAS 241350Z 04003KT 340V110 6000 -SHRA FEW009 BKN023 BKN080 12/12 Q1026
Время наблюдения
2021-10-24T13:50:00Z
Температура C
12.0
Точка росы
12.0
Направление ветра
40
Скорость ветра (узлы)
3
Метео видимость
3.73
Явления погоды
-SHRA
Условия полета
MVFR

Авиационная погода в Воронеже

Регион: 
Погода METAR: 
UUOO 241700Z 33008MPS 9000 -SHRA BKN010 OVC///CB 03/01 Q1020 R30/290155 NOSIG RMK QFE752
Время наблюдения
2021-10-24T17:00:00Z
Температура C
3.0
Точка росы
1.0
Направление ветра
330
Скорость ветра (узлы)
16
Метео видимость
5.59
Явления погоды
-SHRA
Условия полета
MVFR
Аэропорт подробнее: 

Авиационная погода в Синопе

Регион: 
Погода METAR: 
LTCM 241650Z 32008KT 210V360 7000 -SHRA SCT015 BKN025 BKN070 13/11 Q1026
Время наблюдения
2021-10-24T16:50:00Z
Температура C
13.0
Точка росы
11.0
Направление ветра
320
Скорость ветра (узлы)
8
Метео видимость
4.35
Явления погоды
-SHRA
Условия полета
MVFR